sensor_id;sensor_type;location;lat;lon;timestamp;P1;durP1;ratioP1;P2;durP2;ratioP2
64885;SDS011;51514;52.206;5.114;2024-02-21T00:01:26;21.70;;;6.13;;
64885;SDS011;51514;52.206;5.114;2024-02-21T00:03:51;14.63;;;5.50;;
64885;SDS011;51514;52.206;5.114;2024-02-21T00:06:17;17.45;;;6.03;;
64885;SDS011;51514;52.206;5.114;2024-02-21T00:08:42;20.83;;;5.93;;
64885;SDS011;51514;52.206;5.114;2024-02-21T00:11:07;24.40;;;6.28;;
64885;SDS011;51514;52.206;5.114;2024-02-21T00:13:33;19.27;;;5.93;;
64885;SDS011;51514;52.206;5.114;2024-02-21T00:16:00;23.80;;;7.43;;
64885;SDS011;51514;52.206;5.114;2024-02-21T00:18:25;18.15;;;6.35;;
64885;SDS011;51514;52.206;5.114;2024-02-21T00:20:51;20.90;;;6.53;;
64885;SDS011;51514;52.206;5.114;2024-02-21T00:23:16;19.13;;;6.38;;
64885;SDS011;51514;52.206;5.114;2024-02-21T00:25:41;20.48;;;5.78;;
64885;SDS011;51514;52.206;5.114;2024-02-21T00:28:07;23.10;;;5.75;;
64885;SDS011;51514;52.206;5.114;2024-02-21T00:30:32;18.10;;;7.03;;
64885;SDS011;51514;52.206;5.114;2024-02-21T00:32:57;24.52;;;6.18;;
64885;SDS011;51514;52.206;5.114;2024-02-21T00:35:23;19.35;;;6.13;;
64885;SDS011;51514;52.206;5.114;2024-02-21T00:37:48;21.25;;;5.78;;
64885;SDS011;51514;52.206;5.114;2024-02-21T00:40:14;23.25;;;6.65;;
64885;SDS011;51514;52.206;5.114;2024-02-21T00:42:44;18.15;;;5.25;;
64885;SDS011;51514;52.206;5.114;2024-02-21T00:45:10;21.95;;;6.15;;
64885;SDS011;51514;52.206;5.114;2024-02-21T00:47:36;23.10;;;6.65;;
64885;SDS011;51514;52.206;5.114;2024-02-21T00:50:01;22.55;;;5.88;;
64885;SDS011;51514;52.206;5.114;2024-02-21T00:52:27;25.30;;;6.50;;
64885;SDS011;51514;52.206;5.114;2024-02-21T00:54:52;26.08;;;6.80;;
64885;SDS011;51514;52.206;5.114;2024-02-21T00:57:17;23.83;;;7.28;;
64885;SDS011;51514;52.206;5.114;2024-02-21T00:59:43;27.20;;;6.28;;
64885;SDS011;51514;52.206;5.114;2024-02-21T01:02:08;22.60;;;7.30;;
64885;SDS011;51514;52.206;5.114;2024-02-21T01:04:34;26.08;;;6.50;;
64885;SDS011;51514;52.206;5.114;2024-02-21T01:06:59;23.70;;;6.03;;
64885;SDS011;51514;52.206;5.114;2024-02-21T01:09:25;34.47;;;6.80;;
64885;SDS011;51514;52.206;5.114;2024-02-21T01:11:50;22.42;;;5.43;;
64885;SDS011;51514;52.206;5.114;2024-02-21T01:14:16;21.38;;;7.43;;
64885;SDS011;51514;52.206;5.114;2024-02-21T01:16:41;30.98;;;6.30;;
64885;SDS011;51514;52.206;5.114;2024-02-21T01:19:16;24.27;;;6.47;;
64885;SDS011;51514;52.206;5.114;2024-02-21T01:21:41;22.55;;;7.60;;
64885;SDS011;51514;52.206;5.114;2024-02-21T01:24:07;26.08;;;5.90;;
64885;SDS011;51514;52.206;5.114;2024-02-21T01:26:32;16.08;;;5.38;;
64885;SDS011;51514;52.206;5.114;2024-02-21T01:28:57;22.58;;;6.30;;
64885;SDS011;51514;52.206;5.114;2024-02-21T01:31:22;21.30;;;5.68;;
64885;SDS011;51514;52.206;5.114;2024-02-21T01:33:48;24.83;;;7.68;;
64885;SDS011;51514;52.206;5.114;2024-02-21T01:36:13;22.05;;;5.70;;
64885;SDS011;51514;52.206;5.114;2024-02-21T01:38:38;26.95;;;7.25;;
64885;SDS011;51514;52.206;5.114;2024-02-21T01:41:04;21.17;;;6.40;;
64885;SDS011;51514;52.206;5.114;2024-02-21T01:43:29;18.42;;;5.97;;
64885;SDS011;51514;52.206;5.114;2024-02-21T01:45:55;18.23;;;5.80;;
64885;SDS011;51514;52.206;5.114;2024-02-21T01:48:21;27.05;;;6.45;;
64885;SDS011;51514;52.206;5.114;2024-02-21T01:50:48;19.95;;;5.55;;
64885;SDS011;51514;52.206;5.114;2024-02-21T01:53:21;19.52;;;5.88;;
64885;SDS011;51514;52.206;5.114;2024-02-21T01:55:54;15.55;;;5.25;;
64885;SDS011;51514;52.206;5.114;2024-02-21T01:58:20;23.45;;;5.90;;
64885;SDS011;51514;52.206;5.114;2024-02-21T02:00:46;22.33;;;5.55;;
64885;SDS011;51514;52.206;5.114;2024-02-21T02:03:13;21.50;;;5.50;;
64885;SDS011;51514;52.206;5.114;2024-02-21T02:05:45;21.30;;;5.90;;
64885;SDS011;51514;52.206;5.114;2024-02-21T02:10:40;22.73;;;5.80;;
64885;SDS011;51514;52.206;5.114;2024-02-21T02:13:06;19.38;;;5.55;;
64885;SDS011;51514;52.206;5.114;2024-02-21T02:15:41;18.48;;;5.22;;
64885;SDS011;51514;52.206;5.114;2024-02-21T02:18:10;18.33;;;5.80;;
64885;SDS011;51514;52.206;5.114;2024-02-21T02:20:37;22.35;;;5.40;;
64885;SDS011;51514;52.206;5.114;2024-02-21T02:23:05;24.20;;;5.38;;
64885;SDS011;51514;52.206;5.114;2024-02-21T02:25:35;19.40;;;5.65;;
64885;SDS011;51514;52.206;5.114;2024-02-21T02:28:02;22.40;;;5.50;;
64885;SDS011;51514;52.206;5.114;2024-02-21T02:30:34;25.85;;;5.70;;
64885;SDS011;51514;52.206;5.114;2024-02-21T02:33:04;18.17;;;4.88;;
64885;SDS011;51514;52.206;5.114;2024-02-21T02:35:30;16.92;;;5.93;;
64885;SDS011;51514;52.206;5.114;2024-02-21T02:37:55;28.02;;;6.90;;
64885;SDS011;51514;52.206;5.114;2024-02-21T02:40:21;26.40;;;6.30;;
64885;SDS011;51514;52.206;5.114;2024-02-21T02:42:46;19.25;;;5.18;;
64885;SDS011;51514;52.206;5.114;2024-02-21T02:45:13;21.52;;;5.68;;
64885;SDS011;51514;52.206;5.114;2024-02-21T02:47:39;25.73;;;5.72;;
64885;SDS011;51514;52.206;5.114;2024-02-21T02:50:05;21.42;;;5.53;;
64885;SDS011;51514;52.206;5.114;2024-02-21T02:52:31;25.38;;;5.88;;
64885;SDS011;51514;52.206;5.114;2024-02-21T02:54:56;24.80;;;4.68;;
64885;SDS011;51514;52.206;5.114;2024-02-21T02:57:21;22.92;;;6.55;;
64885;SDS011;51514;52.206;5.114;2024-02-21T02:59:50;36.22;;;8.63;;
64885;SDS011;51514;52.206;5.114;2024-02-21T03:02:16;30.30;;;5.68;;
64885;SDS011;51514;52.206;5.114;2024-02-21T03:04:42;19.80;;;5.85;;
64885;SDS011;51514;52.206;5.114;2024-02-21T03:07:07;17.63;;;6.53;;
64885;SDS011;51514;52.206;5.114;2024-02-21T03:09:33;21.23;;;7.00;;
64885;SDS011;51514;52.206;5.114;2024-02-21T03:11:58;24.92;;;6.10;;
64885;SDS011;51514;52.206;5.114;2024-02-21T03:14:28;20.88;;;5.63;;
64885;SDS011;51514;52.206;5.114;2024-02-21T03:16:53;21.08;;;6.10;;
64885;SDS011;51514;52.206;5.114;2024-02-21T03:19:19;27.83;;;6.20;;
64885;SDS011;51514;52.206;5.114;2024-02-21T03:21:44;23.55;;;5.97;;
64885;SDS011;51514;52.206;5.114;2024-02-21T03:24:09;26.08;;;6.45;;
64885;SDS011;51514;52.206;5.114;2024-02-21T03:26:35;22.63;;;6.20;;
64885;SDS011;51514;52.206;5.114;2024-02-21T03:29:00;20.92;;;5.90;;
64885;SDS011;51514;52.206;5.114;2024-02-21T03:31:25;20.60;;;5.50;;
64885;SDS011;51514;52.206;5.114;2024-02-21T03:33:51;25.35;;;7.07;;
64885;SDS011;51514;52.206;5.114;2024-02-21T03:36:16;15.40;;;6.03;;
64885;SDS011;51514;52.206;5.114;2024-02-21T03:38:41;19.52;;;6.80;;
64885;SDS011;51514;52.206;5.114;2024-02-21T03:41:07;24.88;;;7.00;;
64885;SDS011;51514;52.206;5.114;2024-02-21T03:43:32;22.10;;;6.95;;
64885;SDS011;51514;52.206;5.114;2024-02-21T03:45:57;19.48;;;8.50;;
64885;SDS011;51514;52.206;5.114;2024-02-21T03:48:23;20.45;;;6.68;;
64885;SDS011;51514;52.206;5.114;2024-02-21T03:50:48;17.67;;;6.45;;
64885;SDS011;51514;52.206;5.114;2024-02-21T03:53:13;30.10;;;6.43;;
64885;SDS011;51514;52.206;5.114;2024-02-21T03:55:39;22.38;;;6.30;;
64885;SDS011;51514;52.206;5.114;2024-02-21T03:58:04;23.67;;;5.90;;
64885;SDS011;51514;52.206;5.114;2024-02-21T04:00:29;17.38;;;6.25;;
64885;SDS011;51514;52.206;5.114;2024-02-21T04:02:55;22.48;;;8.00;;
64885;SDS011;51514;52.206;5.114;2024-02-21T04:05:20;19.60;;;7.22;;
64885;SDS011;51514;52.206;5.114;2024-02-21T04:07:46;22.23;;;8.85;;
64885;SDS011;51514;52.206;5.114;2024-02-21T04:10:11;17.13;;;6.47;;
64885;SDS011;51514;52.206;5.114;2024-02-21T04:12:37;23.73;;;6.55;;
64885;SDS011;51514;52.206;5.114;2024-02-21T04:15:03;22.60;;;6.70;;
64885;SDS011;51514;52.206;5.114;2024-02-21T04:17:29;19.10;;;6.93;;
64885;SDS011;51514;52.206;5.114;2024-02-21T04:20:01;24.00;;;8.35;;
64885;SDS011;51514;52.206;5.114;2024-02-21T04:22:35;17.17;;;7.28;;
64885;SDS011;51514;52.206;5.114;2024-02-21T04:25:01;24.15;;;7.72;;
64885;SDS011;51514;52.206;5.114;2024-02-21T04:27:26;15.77;;;8.40;;
64885;SDS011;51514;52.206;5.114;2024-02-21T04:29:52;21.00;;;9.43;;
64885;SDS011;51514;52.206;5.114;2024-02-21T04:32:18;23.25;;;9.52;;
64885;SDS011;51514;52.206;5.114;2024-02-21T04:34:43;22.45;;;9.35;;
64885;SDS011;51514;52.206;5.114;2024-02-21T04:37:08;23.00;;;9.32;;
64885;SDS011;51514;52.206;5.114;2024-02-21T04:39:34;19.10;;;8.27;;
64885;SDS011;51514;52.206;5.114;2024-02-21T04:41:59;16.88;;;8.45;;
64885;SDS011;51514;52.206;5.114;2024-02-21T04:44:24;20.65;;;9.55;;
64885;SDS011;51514;52.206;5.114;2024-02-21T04:46:50;18.33;;;9.00;;
64885;SDS011;51514;52.206;5.114;2024-02-21T04:49:15;16.67;;;8.68;;
64885;SDS011;51514;52.206;5.114;2024-02-21T04:51:41;18.92;;;8.38;;
64885;SDS011;51514;52.206;5.114;2024-02-21T04:54:06;19.70;;;9.23;;
64885;SDS011;51514;52.206;5.114;2024-02-21T04:56:31;16.90;;;9.75;;
64885;SDS011;51514;52.206;5.114;2024-02-21T04:58:57;17.52;;;9.43;;
64885;SDS011;51514;52.206;5.114;2024-02-21T05:01:22;14.90;;;8.65;;
64885;SDS011;51514;52.206;5.114;2024-02-21T05:03:47;19.05;;;8.80;;
64885;SDS011;51514;52.206;5.114;2024-02-21T05:06:13;19.23;;;9.60;;
64885;SDS011;51514;52.206;5.114;2024-02-21T05:08:40;17.45;;;9.30;;
64885;SDS011;51514;52.206;5.114;2024-02-21T05:11:05;16.55;;;9.38;;
64885;SDS011;51514;52.206;5.114;2024-02-21T05:13:31;18.98;;;8.85;;
64885;SDS011;51514;52.206;5.114;2024-02-21T05:15:56;18.45;;;8.60;;
64885;SDS011;51514;52.206;5.114;2024-02-21T05:18:21;17.67;;;10.05;;
64885;SDS011;51514;52.206;5.114;2024-02-21T05:20:47;24.30;;;9.57;;
64885;SDS011;51514;52.206;5.114;2024-02-21T05:23:12;18.88;;;8.48;;
64885;SDS011;51514;52.206;5.114;2024-02-21T05:25:37;14.00;;;8.02;;
64885;SDS011;51514;52.206;5.114;2024-02-21T05:28:03;18.60;;;9.45;;
64885;SDS011;51514;52.206;5.114;2024-02-21T05:30:31;18.02;;;8.90;;
64885;SDS011;51514;52.206;5.114;2024-02-21T05:32:56;14.52;;;8.82;;
64885;SDS011;51514;52.206;5.114;2024-02-21T05:35:26;22.23;;;9.88;;
64885;SDS011;51514;52.206;5.114;2024-02-21T05:37:52;15.25;;;10.07;;
64885;SDS011;51514;52.206;5.114;2024-02-21T05:40:17;23.75;;;9.98;;
64885;SDS011;51514;52.206;5.114;2024-02-21T05:42:43;19.60;;;10.98;;
64885;SDS011;51514;52.206;5.114;2024-02-21T05:45:08;17.58;;;9.95;;
64885;SDS011;51514;52.206;5.114;2024-02-21T05:47:34;18.33;;;10.20;;
64885;SDS011;51514;52.206;5.114;2024-02-21T05:49:59;20.55;;;11.02;;
64885;SDS011;51514;52.206;5.114;2024-02-21T05:52:25;17.88;;;10.77;;
64885;SDS011;51514;52.206;5.114;2024-02-21T05:54:50;17.08;;;10.32;;
64885;SDS011;51514;52.206;5.114;2024-02-21T05:57:16;21.33;;;11.55;;
64885;SDS011;51514;52.206;5.114;2024-02-21T05:59:42;18.83;;;10.93;;
64885;SDS011;51514;52.206;5.114;2024-02-21T06:02:08;21.52;;;11.00;;
64885;SDS011;51514;52.206;5.114;2024-02-21T06:04:34;20.50;;;11.50;;
64885;SDS011;51514;52.206;5.114;2024-02-21T06:07:00;19.95;;;10.88;;
64885;SDS011;51514;52.206;5.114;2024-02-21T06:09:26;20.00;;;11.50;;
64885;SDS011;51514;52.206;5.114;2024-02-21T06:11:51;20.52;;;11.85;;
64885;SDS011;51514;52.206;5.114;2024-02-21T06:14:17;19.83;;;11.43;;
64885;SDS011;51514;52.206;5.114;2024-02-21T06:16:43;21.88;;;11.55;;
64885;SDS011;51514;52.206;5.114;2024-02-21T06:19:09;20.67;;;12.70;;
64885;SDS011;51514;52.206;5.114;2024-02-21T06:21:34;18.80;;;11.90;;
64885;SDS011;51514;52.206;5.114;2024-02-21T06:24:00;20.40;;;11.45;;
64885;SDS011;51514;52.206;5.114;2024-02-21T06:26:25;22.83;;;12.40;;
64885;SDS011;51514;52.206;5.114;2024-02-21T06:28:51;21.05;;;12.40;;
64885;SDS011;51514;52.206;5.114;2024-02-21T06:31:16;18.17;;;11.57;;
64885;SDS011;51514;52.206;5.114;2024-02-21T06:33:42;22.08;;;12.50;;
64885;SDS011;51514;52.206;5.114;2024-02-21T06:36:08;25.58;;;12.70;;
64885;SDS011;51514;52.206;5.114;2024-02-21T06:38:33;21.15;;;11.43;;
64885;SDS011;51514;52.206;5.114;2024-02-21T06:40:59;22.80;;;11.68;;
64885;SDS011;51514;52.206;5.114;2024-02-21T06:43:25;23.50;;;12.10;;
64885;SDS011;51514;52.206;5.114;2024-02-21T06:45:51;23.77;;;13.20;;
64885;SDS011;51514;52.206;5.114;2024-02-21T06:48:17;24.77;;;12.45;;
64885;SDS011;51514;52.206;5.114;2024-02-21T06:50:43;26.13;;;13.43;;
64885;SDS011;51514;52.206;5.114;2024-02-21T06:53:09;21.50;;;13.00;;
64885;SDS011;51514;52.206;5.114;2024-02-21T06:55:34;19.08;;;12.20;;
64885;SDS011;51514;52.206;5.114;2024-02-21T06:58:00;24.38;;;12.32;;
64885;SDS011;51514;52.206;5.114;2024-02-21T07:00:26;21.02;;;13.25;;
64885;SDS011;51514;52.206;5.114;2024-02-21T07:02:51;23.95;;;12.38;;
64885;SDS011;51514;52.206;5.114;2024-02-21T07:05:17;25.27;;;13.25;;
64885;SDS011;51514;52.206;5.114;2024-02-21T07:07:42;21.52;;;12.30;;
64885;SDS011;51514;52.206;5.114;2024-02-21T07:10:07;23.00;;;13.80;;
64885;SDS011;51514;52.206;5.114;2024-02-21T07:12:33;27.10;;;13.88;;
64885;SDS011;51514;52.206;5.114;2024-02-21T07:15:00;28.40;;;14.38;;
64885;SDS011;51514;52.206;5.114;2024-02-21T07:17:25;25.13;;;14.23;;
64885;SDS011;51514;52.206;5.114;2024-02-21T07:19:50;24.52;;;13.75;;
64885;SDS011;51514;52.206;5.114;2024-02-21T07:22:16;29.02;;;14.43;;
64885;SDS011;51514;52.206;5.114;2024-02-21T07:24:41;23.63;;;13.85;;
64885;SDS011;51514;52.206;5.114;2024-02-21T07:27:06;27.02;;;13.50;;
64885;SDS011;51514;52.206;5.114;2024-02-21T07:29:32;22.83;;;13.52;;
64885;SDS011;51514;52.206;5.114;2024-02-21T07:31:57;24.98;;;14.20;;
64885;SDS011;51514;52.206;5.114;2024-02-21T07:34:22;24.45;;;13.57;;
64885;SDS011;51514;52.206;5.114;2024-02-21T07:36:48;26.52;;;13.65;;
64885;SDS011;51514;52.206;5.114;2024-02-21T07:39:13;25.08;;;14.73;;
64885;SDS011;51514;52.206;5.114;2024-02-21T07:41:38;23.27;;;12.57;;
64885;SDS011;51514;52.206;5.114;2024-02-21T07:44:05;31.27;;;14.15;;
64885;SDS011;51514;52.206;5.114;2024-02-21T07:46:30;27.17;;;11.98;;
64885;SDS011;51514;52.206;5.114;2024-02-21T07:48:55;29.00;;;12.68;;
64885;SDS011;51514;52.206;5.114;2024-02-21T07:51:21;24.23;;;13.27;;
64885;SDS011;51514;52.206;5.114;2024-02-21T07:53:46;28.52;;;13.52;;
64885;SDS011;51514;52.206;5.114;2024-02-21T07:56:12;26.10;;;12.88;;
64885;SDS011;51514;52.206;5.114;2024-02-21T07:58:39;27.70;;;13.48;;
64885;SDS011;51514;52.206;5.114;2024-02-21T08:01:05;23.52;;;12.32;;
64885;SDS011;51514;52.206;5.114;2024-02-21T08:03:30;20.38;;;12.88;;
64885;SDS011;51514;52.206;5.114;2024-02-21T08:05:55;26.10;;;13.45;;
64885;SDS011;51514;52.206;5.114;2024-02-21T08:08:21;27.70;;;13.68;;
64885;SDS011;51514;52.206;5.114;2024-02-21T08:10:47;26.40;;;14.80;;
64885;SDS011;51514;52.206;5.114;2024-02-21T08:13:13;26.00;;;12.90;;
64885;SDS011;51514;52.206;5.114;2024-02-21T08:15:39;29.42;;;15.93;;
64885;SDS011;51514;52.206;5.114;2024-02-21T08:18:06;26.05;;;12.57;;
64885;SDS011;51514;52.206;5.114;2024-02-21T08:20:32;26.58;;;13.70;;
64885;SDS011;51514;52.206;5.114;2024-02-21T08:22:57;22.17;;;12.48;;
64885;SDS011;51514;52.206;5.114;2024-02-21T08:25:23;26.55;;;13.52;;
64885;SDS011;51514;52.206;5.114;2024-02-21T08:27:48;24.20;;;13.52;;
64885;SDS011;51514;52.206;5.114;2024-02-21T08:30:13;23.20;;;14.30;;
64885;SDS011;51514;52.206;5.114;2024-02-21T08:32:39;24.45;;;13.60;;
64885;SDS011;51514;52.206;5.114;2024-02-21T08:35:04;22.88;;;13.90;;
64885;SDS011;51514;52.206;5.114;2024-02-21T08:37:30;24.75;;;13.95;;
64885;SDS011;51514;52.206;5.114;2024-02-21T08:39:55;31.10;;;14.80;;
64885;SDS011;51514;52.206;5.114;2024-02-21T08:42:21;26.67;;;13.57;;
64885;SDS011;51514;52.206;5.114;2024-02-21T08:44:46;27.58;;;13.38;;
64885;SDS011;51514;52.206;5.114;2024-02-21T08:47:12;26.83;;;14.75;;
64885;SDS011;51514;52.206;5.114;2024-02-21T08:49:37;29.17;;;15.32;;
64885;SDS011;51514;52.206;5.114;2024-02-21T08:52:03;25.38;;;12.75;;
64885;SDS011;51514;52.206;5.114;2024-02-21T08:54:29;24.40;;;14.35;;
64885;SDS011;51514;52.206;5.114;2024-02-21T08:56:54;24.65;;;13.45;;
64885;SDS011;51514;52.206;5.114;2024-02-21T08:59:20;28.30;;;14.70;;
64885;SDS011;51514;52.206;5.114;2024-02-21T09:01:45;28.00;;;15.18;;
64885;SDS011;51514;52.206;5.114;2024-02-21T09:04:11;27.48;;;16.13;;
64885;SDS011;51514;52.206;5.114;2024-02-21T09:06:37;28.95;;;16.00;;
64885;SDS011;51514;52.206;5.114;2024-02-21T09:09:06;21.65;;;14.98;;
64885;SDS011;51514;52.206;5.114;2024-02-21T09:11:33;29.08;;;16.17;;
64885;SDS011;51514;52.206;5.114;2024-02-21T09:13:59;29.58;;;16.88;;
64885;SDS011;51514;52.206;5.114;2024-02-21T09:16:24;29.80;;;16.33;;
64885;SDS011;51514;52.206;5.114;2024-02-21T09:18:50;24.77;;;16.10;;
64885;SDS011;51514;52.206;5.114;2024-02-21T09:21:15;31.13;;;16.15;;
64885;SDS011;51514;52.206;5.114;2024-02-21T09:23:40;27.35;;;15.57;;
64885;SDS011;51514;52.206;5.114;2024-02-21T09:26:06;23.73;;;14.75;;
64885;SDS011;51514;52.206;5.114;2024-02-21T09:28:31;22.13;;;12.98;;
64885;SDS011;51514;52.206;5.114;2024-02-21T09:30:58;27.67;;;15.77;;
64885;SDS011;51514;52.206;5.114;2024-02-21T09:33:23;23.17;;;14.73;;
64885;SDS011;51514;52.206;5.114;2024-02-21T09:35:48;29.70;;;16.17;;
64885;SDS011;51514;52.206;5.114;2024-02-21T09:38:14;22.58;;;14.52;;
64885;SDS011;51514;52.206;5.114;2024-02-21T09:40:40;22.48;;;13.82;;
64885;SDS011;51514;52.206;5.114;2024-02-21T09:43:07;25.90;;;13.10;;
64885;SDS011;51514;52.206;5.114;2024-02-21T09:45:33;23.45;;;14.35;;
64885;SDS011;51514;52.206;5.114;2024-02-21T09:51:06;18.58;;;11.70;;
64885;SDS011;51514;52.206;5.114;2024-02-21T09:53:34;22.00;;;12.60;;
64885;SDS011;51514;52.206;5.114;2024-02-21T09:56:02;21.45;;;13.60;;
64885;SDS011;51514;52.206;5.114;2024-02-21T09:58:30;19.33;;;11.27;;
64885;SDS011;51514;52.206;5.114;2024-02-21T10:00:55;24.67;;;13.40;;
64885;SDS011;51514;52.206;5.114;2024-02-21T10:03:22;22.35;;;11.43;;
64885;SDS011;51514;52.206;5.114;2024-02-21T10:05:48;17.48;;;11.00;;
64885;SDS011;51514;52.206;5.114;2024-02-21T10:08:15;18.95;;;10.60;;
64885;SDS011;51514;52.206;5.114;2024-02-21T10:10:44;17.88;;;10.43;;
64885;SDS011;51514;52.206;5.114;2024-02-21T10:15:39;17.90;;;10.02;;
64885;SDS011;51514;52.206;5.114;2024-02-21T10:18:05;14.63;;;9.18;;
64885;SDS011;51514;52.206;5.114;2024-02-21T10:20:31;18.02;;;9.23;;
64885;SDS011;51514;52.206;5.114;2024-02-21T10:23:04;17.35;;;8.30;;
64885;SDS011;51514;52.206;5.114;2024-02-21T10:25:36;13.45;;;8.50;;
64885;SDS011;51514;52.206;5.114;2024-02-21T10:28:13;14.38;;;9.45;;
64885;SDS011;51514;52.206;5.114;2024-02-21T10:30:48;16.20;;;9.07;;
64885;SDS011;51514;52.206;5.114;2024-02-21T10:33:15;16.42;;;8.93;;
64885;SDS011;51514;52.206;5.114;2024-02-21T10:35:41;18.98;;;9.70;;
64885;SDS011;51514;52.206;5.114;2024-02-21T10:38:06;12.38;;;8.93;;
64885;SDS011;51514;52.206;5.114;2024-02-21T10:40:31;12.38;;;8.60;;
64885;SDS011;51514;52.206;5.114;2024-02-21T10:42:57;13.60;;;8.30;;
64885;SDS011;51514;52.206;5.114;2024-02-21T10:45:29;17.70;;;8.65;;
64885;SDS011;51514;52.206;5.114;2024-02-21T10:48:12;14.07;;;8.20;;
64885;SDS011;51514;52.206;5.114;2024-02-21T10:56:16;14.57;;;8.27;;
64885;SDS011;51514;52.206;5.114;2024-02-21T10:58:48;15.40;;;7.53;;
64885;SDS011;51514;52.206;5.114;2024-02-21T11:01:14;14.55;;;8.15;;
64885;SDS011;51514;52.206;5.114;2024-02-21T11:03:41;11.23;;;7.82;;
64885;SDS011;51514;52.206;5.114;2024-02-21T11:06:09;13.98;;;8.32;;
64885;SDS011;51514;52.206;5.114;2024-02-21T11:08:36;10.32;;;7.38;;
64885;SDS011;51514;52.206;5.114;2024-02-21T11:11:01;13.40;;;8.15;;
64885;SDS011;51514;52.206;5.114;2024-02-21T11:13:31;13.15;;;7.55;;
64885;SDS011;51514;52.206;5.114;2024-02-21T11:16:08;14.07;;;8.18;;
64885;SDS011;51514;52.206;5.114;2024-02-21T11:18:35;13.20;;;7.95;;
64885;SDS011;51514;52.206;5.114;2024-02-21T11:21:01;11.27;;;8.00;;
64885;SDS011;51514;52.206;5.114;2024-02-21T11:23:29;10.93;;;6.93;;
64885;SDS011;51514;52.206;5.114;2024-02-21T11:26:10;10.77;;;8.25;;
64885;SDS011;51514;52.206;5.114;2024-02-21T11:28:55;10.82;;;7.90;;
64885;SDS011;51514;52.206;5.114;2024-02-21T11:31:25;9.38;;;7.97;;
64885;SDS011;51514;52.206;5.114;2024-02-21T11:33:52;14.27;;;8.20;;
64885;SDS011;51514;52.206;5.114;2024-02-21T11:36:24;16.98;;;9.00;;
64885;SDS011;51514;52.206;5.114;2024-02-21T11:38:51;15.65;;;10.05;;
64885;SDS011;51514;52.206;5.114;2024-02-21T11:41:17;12.55;;;8.43;;
64885;SDS011;51514;52.206;5.114;2024-02-21T11:43:42;16.85;;;10.57;;
64885;SDS011;51514;52.206;5.114;2024-02-21T11:46:08;12.48;;;9.50;;
64885;SDS011;51514;52.206;5.114;2024-02-21T11:48:34;12.93;;;9.02;;
64885;SDS011;51514;52.206;5.114;2024-02-21T11:51:00;14.80;;;9.43;;
64885;SDS011;51514;52.206;5.114;2024-02-21T11:53:26;14.40;;;10.07;;
64885;SDS011;51514;52.206;5.114;2024-02-21T11:58:22;21.92;;;10.45;;
64885;SDS011;51514;52.206;5.114;2024-02-21T12:00:48;12.75;;;9.20;;
64885;SDS011;51514;52.206;5.114;2024-02-21T12:03:13;15.82;;;9.63;;
64885;SDS011;51514;52.206;5.114;2024-02-21T12:05:40;11.73;;;8.32;;
64885;SDS011;51514;52.206;5.114;2024-02-21T12:08:06;10.70;;;8.05;;
64885;SDS011;51514;52.206;5.114;2024-02-21T12:10:32;12.15;;;7.90;;
64885;SDS011;51514;52.206;5.114;2024-02-21T12:13:09;10.23;;;8.75;;
64885;SDS011;51514;52.206;5.114;2024-02-21T12:15:35;12.95;;;8.40;;
64885;SDS011;51514;52.206;5.114;2024-02-21T12:18:00;13.65;;;8.98;;
64885;SDS011;51514;52.206;5.114;2024-02-21T12:20:26;14.38;;;10.05;;
64885;SDS011;51514;52.206;5.114;2024-02-21T12:22:51;12.55;;;8.60;;
64885;SDS011;51514;52.206;5.114;2024-02-21T12:25:19;14.32;;;8.85;;
64885;SDS011;51514;52.206;5.114;2024-02-21T12:27:51;12.63;;;8.23;;
64885;SDS011;51514;52.206;5.114;2024-02-21T12:30:16;13.27;;;8.00;;
64885;SDS011;51514;52.206;5.114;2024-02-21T12:32:42;12.30;;;8.95;;
64885;SDS011;51514;52.206;5.114;2024-02-21T12:35:07;11.93;;;8.18;;
64885;SDS011;51514;52.206;5.114;2024-02-21T12:37:33;14.45;;;8.63;;
64885;SDS011;51514;52.206;5.114;2024-02-21T12:39:58;13.50;;;8.23;;
64885;SDS011;51514;52.206;5.114;2024-02-21T12:42:24;12.73;;;8.73;;
64885;SDS011;51514;52.206;5.114;2024-02-21T12:44:51;13.57;;;7.95;;
64885;SDS011;51514;52.206;5.114;2024-02-21T12:47:17;12.75;;;8.48;;
64885;SDS011;51514;52.206;5.114;2024-02-21T12:49:44;10.80;;;8.18;;
64885;SDS011;51514;52.206;5.114;2024-02-21T12:52:10;12.75;;;9.07;;
64885;SDS011;51514;52.206;5.114;2024-02-21T12:54:36;12.40;;;8.38;;
64885;SDS011;51514;52.206;5.114;2024-02-21T12:57:01;15.40;;;8.07;;
64885;SDS011;51514;52.206;5.114;2024-02-21T12:59:28;12.77;;;8.63;;
64885;SDS011;51514;52.206;5.114;2024-02-21T13:01:54;12.27;;;8.05;;
64885;SDS011;51514;52.206;5.114;2024-02-21T13:04:19;13.10;;;8.27;;
64885;SDS011;51514;52.206;5.114;2024-02-21T13:06:46;11.98;;;8.23;;
64885;SDS011;51514;52.206;5.114;2024-02-21T13:09:12;11.55;;;8.65;;
64885;SDS011;51514;52.206;5.114;2024-02-21T13:11:38;11.50;;;8.23;;
64885;SDS011;51514;52.206;5.114;2024-02-21T13:14:05;11.73;;;8.40;;
64885;SDS011;51514;52.206;5.114;2024-02-21T13:16:31;10.40;;;8.10;;
64885;SDS011;51514;52.206;5.114;2024-02-21T13:18:56;8.88;;;7.28;;
64885;SDS011;51514;52.206;5.114;2024-02-21T13:21:22;12.88;;;7.90;;
64885;SDS011;51514;52.206;5.114;2024-02-21T13:23:47;10.48;;;8.32;;
64885;SDS011;51514;52.206;5.114;2024-02-21T13:26:13;10.82;;;7.65;;
64885;SDS011;51514;52.206;5.114;2024-02-21T13:28:39;10.00;;;7.57;;
64885;SDS011;51514;52.206;5.114;2024-02-21T13:31:04;13.73;;;7.60;;
64885;SDS011;51514;52.206;5.114;2024-02-21T13:33:29;11.80;;;7.57;;
64885;SDS011;51514;52.206;5.114;2024-02-21T13:35:55;10.07;;;7.25;;
64885;SDS011;51514;52.206;5.114;2024-02-21T13:38:20;15.57;;;7.85;;
64885;SDS011;51514;52.206;5.114;2024-02-21T13:40:51;11.57;;;7.72;;
64885;SDS011;51514;52.206;5.114;2024-02-21T13:43:18;9.43;;;6.97;;
64885;SDS011;51514;52.206;5.114;2024-02-21T13:45:54;11.43;;;7.20;;
64885;SDS011;51514;52.206;5.114;2024-02-21T13:48:24;9.20;;;6.70;;
64885;SDS011;51514;52.206;5.114;2024-02-21T13:50:50;10.00;;;6.82;;
64885;SDS011;51514;52.206;5.114;2024-02-21T13:53:15;16.17;;;7.18;;
64885;SDS011;51514;52.206;5.114;2024-02-21T13:55:43;10.88;;;8.25;;
64885;SDS011;51514;52.206;5.114;2024-02-21T13:58:11;12.57;;;6.63;;
64885;SDS011;51514;52.206;5.114;2024-02-21T14:00:36;11.85;;;7.90;;
64885;SDS011;51514;52.206;5.114;2024-02-21T14:03:02;10.05;;;6.90;;
64885;SDS011;51514;52.206;5.114;2024-02-21T14:05:27;12.65;;;7.55;;
64885;SDS011;51514;52.206;5.114;2024-02-21T14:07:53;10.75;;;7.88;;
64885;SDS011;51514;52.206;5.114;2024-02-21T14:10:19;12.02;;;7.93;;
64885;SDS011;51514;52.206;5.114;2024-02-21T14:12:45;12.20;;;7.60;;
64885;SDS011;51514;52.206;5.114;2024-02-21T14:15:12;15.73;;;8.48;;
64885;SDS011;51514;52.206;5.114;2024-02-21T14:17:38;14.27;;;7.85;;
64885;SDS011;51514;52.206;5.114;2024-02-21T14:20:04;14.35;;;6.85;;
64885;SDS011;51514;52.206;5.114;2024-02-21T14:22:30;12.02;;;6.75;;
64885;SDS011;51514;52.206;5.114;2024-02-21T14:24:55;13.38;;;5.78;;
64885;SDS011;51514;52.206;5.114;2024-02-21T14:27:21;9.98;;;6.43;;
64885;SDS011;51514;52.206;5.114;2024-02-21T14:29:47;14.75;;;7.25;;
64885;SDS011;51514;52.206;5.114;2024-02-21T14:32:12;11.20;;;6.28;;
64885;SDS011;51514;52.206;5.114;2024-02-21T14:34:38;11.60;;;6.47;;
64885;SDS011;51514;52.206;5.114;2024-02-21T14:37:03;16.92;;;6.45;;
64885;SDS011;51514;52.206;5.114;2024-02-21T14:39:29;12.65;;;7.55;;
64885;SDS011;51514;52.206;5.114;2024-02-21T14:41:54;13.30;;;6.78;;